메인 페이지
METAR-TAF:

METAR-TAF

공항 :

데리, 북아일랜드

위도: 55-03N, 경도: 007-09W, 고도: 9m

현재 날씨관측

예보는 44분 전, 09:50시(UTC)에 발표되었습니다.
7kt
온도 16°C
습도 82%
기압 1016 hPa
시정 10km 이상
고도 1000ft 상공 구름 보통
고도 1700ft 상공 구름 많음

METAR: EGAE 130950Z 36007KT 9999 SCT010 BKN017 16/13 Q1016

시각: 11:34 (10:34 UTC)

예보

예보는 2 시간 36분 전, 07:58시(UTC)에 발표되었습니다.
예보 대상 시간: 13일 09시부터 13일 16시까지 (UTC)
6kt
시정 10km 이상
고도 1800ft 상공 구름 많음
일시적
13일 09시부터 13일 12시까지 (UTC)
고도 900ft 상공 구름 많음
확률 30% :
일시적
13일 12시부터 13일 16시까지 (UTC)
시정: 7000m
고도 1400ft 상공 구름 많음
소나기,

TAF: EGAE 130758Z 1309/1316 01006KT 9999 BKN018 TEMPO 1309/1312 BKN009 PROB30 TEMPO 1312/1316 7000 SHRA BKN014

4,000개 이상의 공항 관측 자료 및 예보 (METAR 및 TAF 보고).

지도상에서 검색 가능한 기상관측소가 노란 점과 빨간 점으로 표시되어 있습니다.

기상관측소 명을 보려면 표시 위로 마우스를 이동하세요.

날씨 관측과 예보를 보려면 클릭하세요.

지도 변경 : 확대하려면 엑스 표시가 있는 녹색 버튼, 축소하려면 빼기 표시가 있는 녹색 버튼, 다음 페이지의 지도를 보려면 녹색 화살표를 클릭하세요.


METAR-TAF: